シンガポール/チャンギ の空港の天気 - METARとTAF

シンガポール・チャンギ国際空港 ( WSSS / SIN ) - シンガポール Changi
飛行場実況気象(Metar)
観測時間02/22 02:30 SGT (02/21 18:30 UTC)
風向・風速北北東 2m/s
視程10km以上
天気現象
少しの雲 雲底高度 490m
全天の8割程度の雲 雲底高度 9140m
気温26℃
湿度89%
気圧1012hPa
METARWSSS 211830Z 02004KT 330V070 9999 FEW016 BKN300 26/24 Q1012 NOSIG
過去の天気等 Google飛行場航空写真 Wunderground天気予報

過去48時間のMETAR

飛行場予報(TAF)
発表時間: 2/22 01:00 SGT (2/21 17:00 UTC)
予報対象時間: 22日2時 SGT ~ 23日8時 SGT
風向・風速北北東 5m/s
視程10km以上
全天の4割程度の雲 雲底高度 610m
TAF WSSS 211700Z 2118/2300 03010KT 9999 SCT020